sensor_id;sensor_type;location;lat;lon;timestamp;P1;durP1;ratioP1;P2;durP2;ratioP2
54561;SDS011;69047;53.358;-1.486;2023-06-22T00:01:19;8.98;;;2.08;;
54561;SDS011;69047;53.358;-1.486;2023-06-22T00:03:46;9.98;;;2.30;;
54561;SDS011;69047;53.358;-1.486;2023-06-22T00:06:11;5.25;;;1.55;;
54561;SDS011;69047;53.358;-1.486;2023-06-22T00:08:37;5.30;;;1.50;;
54561;SDS011;69047;53.358;-1.486;2023-06-22T00:11:03;10.30;;;1.77;;
54561;SDS011;69047;53.358;-1.486;2023-06-22T00:13:28;7.93;;;1.85;;
54561;SDS011;69047;53.358;-1.486;2023-06-22T00:15:53;7.68;;;1.75;;
54561;SDS011;69047;53.358;-1.486;2023-06-22T00:18:19;5.15;;;1.42;;
54561;SDS011;69047;53.358;-1.486;2023-06-22T00:20:45;5.65;;;1.50;;
54561;SDS011;69047;53.358;-1.486;2023-06-22T00:23:10;9.00;;;1.50;;
54561;SDS011;69047;53.358;-1.486;2023-06-22T00:25:36;6.63;;;1.50;;
54561;SDS011;69047;53.358;-1.486;2023-06-22T00:28:03;7.00;;;1.67;;
54561;SDS011;69047;53.358;-1.486;2023-06-22T00:30:30;5.70;;;1.50;;
54561;SDS011;69047;53.358;-1.486;2023-06-22T00:32:56;6.07;;;1.42;;
54561;SDS011;69047;53.358;-1.486;2023-06-22T00:35:21;7.47;;;1.00;;
54561;SDS011;69047;53.358;-1.486;2023-06-22T00:37:47;5.78;;;1.17;;
54561;SDS011;69047;53.358;-1.486;2023-06-22T00:40:12;6.82;;;1.20;;
54561;SDS011;69047;53.358;-1.486;2023-06-22T00:42:38;2.45;;;1.33;;
54561;SDS011;69047;53.358;-1.486;2023-06-22T00:45:04;6.15;;;1.10;;
54561;SDS011;69047;53.358;-1.486;2023-06-22T00:47:30;3.15;;;0.93;;
54561;SDS011;69047;53.358;-1.486;2023-06-22T00:49:56;1.73;;;0.93;;
54561;SDS011;69047;53.358;-1.486;2023-06-22T00:52:21;1.15;;;1.02;;
54561;SDS011;69047;53.358;-1.486;2023-06-22T00:54:51;5.15;;;1.15;;
54561;SDS011;69047;53.358;-1.486;2023-06-22T00:57:17;1.50;;;0.90;;
54561;SDS011;69047;53.358;-1.486;2023-06-22T00:59:43;8.05;;;1.00;;
54561;SDS011;69047;53.358;-1.486;2023-06-22T01:02:09;4.05;;;0.98;;
54561;SDS011;69047;53.358;-1.486;2023-06-22T01:04:36;2.53;;;0.75;;
54561;SDS011;69047;53.358;-1.486;2023-06-22T01:07:11;1.83;;;0.80;;
54561;SDS011;69047;53.358;-1.486;2023-06-22T01:12:22;1.05;;;0.95;;
54561;SDS011;69047;53.358;-1.486;2023-06-22T01:14:50;1.98;;;1.27;;
54561;SDS011;69047;53.358;-1.486;2023-06-22T01:17:20;3.03;;;0.73;;
54561;SDS011;69047;53.358;-1.486;2023-06-22T01:19:46;2.63;;;0.70;;
54561;SDS011;69047;53.358;-1.486;2023-06-22T01:22:19;2.97;;;0.95;;
54561;SDS011;69047;53.358;-1.486;2023-06-22T01:29:57;2.67;;;0.77;;
54561;SDS011;69047;53.358;-1.486;2023-06-22T01:32:32;0.93;;;0.65;;
54561;SDS011;69047;53.358;-1.486;2023-06-22T01:37:24;2.15;;;0.60;;
54561;SDS011;69047;53.358;-1.486;2023-06-22T01:39:50;1.38;;;0.57;;
54561;SDS011;69047;53.358;-1.486;2023-06-22T01:42:15;0.73;;;0.60;;
54561;SDS011;69047;53.358;-1.486;2023-06-22T01:44:42;2.25;;;0.47;;
54561;SDS011;69047;53.358;-1.486;2023-06-22T01:47:07;3.08;;;0.80;;
54561;SDS011;69047;53.358;-1.486;2023-06-22T01:49:33;0.60;;;0.60;;
54561;SDS011;69047;53.358;-1.486;2023-06-22T01:51:58;1.25;;;0.80;;
54561;SDS011;69047;53.358;-1.486;2023-06-22T01:54:23;3.30;;;0.50;;
54561;SDS011;69047;53.358;-1.486;2023-06-22T01:56:49;1.15;;;0.75;;
54561;SDS011;69047;53.358;-1.486;2023-06-22T01:59:20;0.73;;;0.73;;
54561;SDS011;69047;53.358;-1.486;2023-06-22T02:01:55;0.47;;;0.45;;
54561;SDS011;69047;53.358;-1.486;2023-06-22T02:04:24;6.25;;;0.70;;
54561;SDS011;69047;53.358;-1.486;2023-06-22T02:06:55;0.82;;;0.40;;
54561;SDS011;69047;53.358;-1.486;2023-06-22T02:09:22;0.43;;;0.43;;
54561;SDS011;69047;53.358;-1.486;2023-06-22T02:11:49;0.60;;;0.50;;
54561;SDS011;69047;53.358;-1.486;2023-06-22T02:14:18;0.75;;;0.50;;
54561;SDS011;69047;53.358;-1.486;2023-06-22T02:16:44;0.75;;;0.60;;
54561;SDS011;69047;53.358;-1.486;2023-06-22T02:19:09;0.70;;;0.50;;
54561;SDS011;69047;53.358;-1.486;2023-06-22T02:21:35;0.65;;;0.45;;
54561;SDS011;69047;53.358;-1.486;2023-06-22T02:24:00;0.82;;;0.60;;
54561;SDS011;69047;53.358;-1.486;2023-06-22T02:26:26;1.33;;;0.60;;
54561;SDS011;69047;53.358;-1.486;2023-06-22T02:28:52;0.90;;;0.60;;
54561;SDS011;69047;53.358;-1.486;2023-06-22T02:31:18;0.70;;;0.57;;
54561;SDS011;69047;53.358;-1.486;2023-06-22T02:33:44;0.52;;;0.50;;
54561;SDS011;69047;53.358;-1.486;2023-06-22T02:36:09;2.35;;;0.65;;
54561;SDS011;69047;53.358;-1.486;2023-06-22T02:38:37;0.65;;;0.30;;
54561;SDS011;69047;53.358;-1.486;2023-06-22T02:41:13;0.82;;;0.60;;
54561;SDS011;69047;53.358;-1.486;2023-06-22T02:43:43;5.18;;;0.57;;
54561;SDS011;69047;53.358;-1.486;2023-06-22T02:46:11;0.80;;;0.68;;
54561;SDS011;69047;53.358;-1.486;2023-06-22T02:48:38;0.70;;;0.57;;
54561;SDS011;69047;53.358;-1.486;2023-06-22T02:51:04;0.77;;;0.77;;
54561;SDS011;69047;53.358;-1.486;2023-06-22T02:53:29;0.55;;;0.40;;
54561;SDS011;69047;53.358;-1.486;2023-06-22T02:55:55;2.45;;;0.52;;
54561;SDS011;69047;53.358;-1.486;2023-06-22T02:58:20;0.60;;;0.50;;
54561;SDS011;69047;53.358;-1.486;2023-06-22T03:00:46;0.40;;;0.40;;
54561;SDS011;69047;53.358;-1.486;2023-06-22T03:03:11;1.08;;;0.50;;
54561;SDS011;69047;53.358;-1.486;2023-06-22T03:05:37;0.25;;;0.25;;
54561;SDS011;69047;53.358;-1.486;2023-06-22T03:08:02;0.50;;;0.50;;
54561;SDS011;69047;53.358;-1.486;2023-06-22T03:10:28;1.42;;;0.57;;
54561;SDS011;69047;53.358;-1.486;2023-06-22T03:12:54;1.15;;;0.70;;
54561;SDS011;69047;53.358;-1.486;2023-06-22T03:15:19;0.80;;;0.50;;
54561;SDS011;69047;53.358;-1.486;2023-06-22T03:17:45;0.50;;;0.50;;
54561;SDS011;69047;53.358;-1.486;2023-06-22T03:20:11;0.43;;;0.43;;
54561;SDS011;69047;53.358;-1.486;2023-06-22T03:22:40;0.73;;;0.63;;
54561;SDS011;69047;53.358;-1.486;2023-06-22T03:25:06;0.60;;;0.60;;
54561;SDS011;69047;53.358;-1.486;2023-06-22T03:27:39;0.65;;;0.50;;
54561;SDS011;69047;53.358;-1.486;2023-06-22T03:30:06;0.50;;;0.40;;
54561;SDS011;69047;53.358;-1.486;2023-06-22T03:32:35;0.68;;;0.40;;
54561;SDS011;69047;53.358;-1.486;2023-06-22T03:35:00;0.80;;;0.63;;
54561;SDS011;69047;53.358;-1.486;2023-06-22T03:37:26;4.85;;;0.47;;
54561;SDS011;69047;53.358;-1.486;2023-06-22T03:39:52;0.30;;;0.30;;
54561;SDS011;69047;53.358;-1.486;2023-06-22T03:42:17;0.70;;;0.47;;
54561;SDS011;69047;53.358;-1.486;2023-06-22T03:44:43;0.50;;;0.50;;
54561;SDS011;69047;53.358;-1.486;2023-06-22T03:47:09;0.60;;;0.50;;
54561;SDS011;69047;53.358;-1.486;2023-06-22T03:49:34;0.40;;;0.40;;
54561;SDS011;69047;53.358;-1.486;2023-06-22T03:52:00;0.50;;;0.50;;
54561;SDS011;69047;53.358;-1.486;2023-06-22T03:54:27;0.55;;;0.40;;
54561;SDS011;69047;53.358;-1.486;2023-06-22T03:56:58;0.65;;;0.63;;
54561;SDS011;69047;53.358;-1.486;2023-06-22T03:59:24;0.40;;;0.40;;
54561;SDS011;69047;53.358;-1.486;2023-06-22T04:01:50;0.45;;;0.45;;
54561;SDS011;69047;53.358;-1.486;2023-06-22T04:04:15;0.38;;;0.38;;
54561;SDS011;69047;53.358;-1.486;2023-06-22T04:06:42;0.45;;;0.45;;
54561;SDS011;69047;53.358;-1.486;2023-06-22T04:09:07;0.50;;;0.50;;
54561;SDS011;69047;53.358;-1.486;2023-06-22T04:11:33;0.77;;;0.68;;
54561;SDS011;69047;53.358;-1.486;2023-06-22T04:13:58;1.75;;;0.60;;
54561;SDS011;69047;53.358;-1.486;2023-06-22T04:16:23;0.73;;;0.40;;
54561;SDS011;69047;53.358;-1.486;2023-06-22T04:18:49;0.98;;;0.65;;
54561;SDS011;69047;53.358;-1.486;2023-06-22T04:21:14;0.98;;;0.50;;
54561;SDS011;69047;53.358;-1.486;2023-06-22T04:23:39;0.50;;;0.50;;
54561;SDS011;69047;53.358;-1.486;2023-06-22T04:26:05;0.43;;;0.43;;
54561;SDS011;69047;53.358;-1.486;2023-06-22T04:28:30;1.33;;;0.60;;
54561;SDS011;69047;53.358;-1.486;2023-06-22T04:30:59;0.60;;;0.55;;
54561;SDS011;69047;53.358;-1.486;2023-06-22T04:33:27;0.45;;;0.40;;
54561;SDS011;69047;53.358;-1.486;2023-06-22T04:35:54;0.28;;;0.28;;
54561;SDS011;69047;53.358;-1.486;2023-06-22T04:38:21;0.60;;;0.38;;
54561;SDS011;69047;53.358;-1.486;2023-06-22T04:40:47;2.92;;;0.43;;
54561;SDS011;69047;53.358;-1.486;2023-06-22T04:43:12;0.50;;;0.40;;
54561;SDS011;69047;53.358;-1.486;2023-06-22T04:45:38;0.73;;;0.52;;
54561;SDS011;69047;53.358;-1.486;2023-06-22T04:48:04;0.52;;;0.47;;
54561;SDS011;69047;53.358;-1.486;2023-06-22T04:50:30;0.30;;;0.30;;
54561;SDS011;69047;53.358;-1.486;2023-06-22T04:52:55;0.50;;;0.47;;
54561;SDS011;69047;53.358;-1.486;2023-06-22T04:55:20;0.38;;;0.32;;
54561;SDS011;69047;53.358;-1.486;2023-06-22T04:57:46;0.70;;;0.52;;
54561;SDS011;69047;53.358;-1.486;2023-06-22T05:00:16;0.40;;;0.40;;
54561;SDS011;69047;53.358;-1.486;2023-06-22T05:02:43;0.57;;;0.57;;
54561;SDS011;69047;53.358;-1.486;2023-06-22T05:05:10;0.75;;;0.50;;
54561;SDS011;69047;53.358;-1.486;2023-06-22T05:07:39;0.60;;;0.20;;
54561;SDS011;69047;53.358;-1.486;2023-06-22T05:10:08;0.40;;;0.38;;
54561;SDS011;69047;53.358;-1.486;2023-06-22T05:12:35;0.90;;;0.50;;
54561;SDS011;69047;53.358;-1.486;2023-06-22T05:15:00;1.00;;;0.77;;
54561;SDS011;69047;53.358;-1.486;2023-06-22T05:17:26;0.50;;;0.43;;
54561;SDS011;69047;53.358;-1.486;2023-06-22T05:19:52;1.00;;;0.45;;
54561;SDS011;69047;53.358;-1.486;2023-06-22T05:22:17;1.05;;;0.63;;
54561;SDS011;69047;53.358;-1.486;2023-06-22T05:24:43;1.02;;;0.52;;
54561;SDS011;69047;53.358;-1.486;2023-06-22T05:27:09;0.45;;;0.35;;
54561;SDS011;69047;53.358;-1.486;2023-06-22T05:29:35;0.47;;;0.40;;
54561;SDS011;69047;53.358;-1.486;2023-06-22T05:32:01;1.13;;;0.30;;
54561;SDS011;69047;53.358;-1.486;2023-06-22T05:34:27;0.28;;;0.28;;
54561;SDS011;69047;53.358;-1.486;2023-06-22T05:36:52;0.32;;;0.30;;
54561;SDS011;69047;53.358;-1.486;2023-06-22T05:39:18;0.43;;;0.38;;
54561;SDS011;69047;53.358;-1.486;2023-06-22T05:41:44;0.32;;;0.30;;
54561;SDS011;69047;53.358;-1.486;2023-06-22T05:44:10;0.38;;;0.38;;
54561;SDS011;69047;53.358;-1.486;2023-06-22T05:46:36;0.43;;;0.20;;
54561;SDS011;69047;53.358;-1.486;2023-06-22T05:49:01;2.55;;;0.22;;
54561;SDS011;69047;53.358;-1.486;2023-06-22T05:51:27;0.65;;;0.32;;
54561;SDS011;69047;53.358;-1.486;2023-06-22T05:53:52;2.53;;;0.50;;
54561;SDS011;69047;53.358;-1.486;2023-06-22T05:56:18;0.52;;;0.30;;
54561;SDS011;69047;53.358;-1.486;2023-06-22T05:58:43;0.25;;;0.25;;
54561;SDS011;69047;53.358;-1.486;2023-06-22T06:01:09;4.68;;;0.77;;
54561;SDS011;69047;53.358;-1.486;2023-06-22T06:03:34;0.73;;;0.10;;
54561;SDS011;69047;53.358;-1.486;2023-06-22T06:06:06;5.10;;;0.38;;
54561;SDS011;69047;53.358;-1.486;2023-06-22T06:08:32;1.42;;;1.23;;
54561;SDS011;69047;53.358;-1.486;2023-06-22T06:10:58;3.90;;;1.90;;
54561;SDS011;69047;53.358;-1.486;2023-06-22T06:13:23;2.67;;;1.40;;
54561;SDS011;69047;53.358;-1.486;2023-06-22T06:15:49;7.13;;;2.13;;
54561;SDS011;69047;53.358;-1.486;2023-06-22T06:18:16;2.08;;;1.45;;
54561;SDS011;69047;53.358;-1.486;2023-06-22T06:20:42;5.55;;;1.67;;
54561;SDS011;69047;53.358;-1.486;2023-06-22T06:23:07;3.63;;;1.80;;
54561;SDS011;69047;53.358;-1.486;2023-06-22T06:25:33;1.95;;;1.30;;
54561;SDS011;69047;53.358;-1.486;2023-06-22T06:27:58;3.22;;;1.85;;
54561;SDS011;69047;53.358;-1.486;2023-06-22T06:30:23;2.17;;;1.70;;
54561;SDS011;69047;53.358;-1.486;2023-06-22T06:32:49;18.40;;;2.45;;
54561;SDS011;69047;53.358;-1.486;2023-06-22T06:35:15;3.22;;;1.90;;
54561;SDS011;69047;53.358;-1.486;2023-06-22T06:37:42;5.68;;;2.40;;
54561;SDS011;69047;53.358;-1.486;2023-06-22T06:40:09;3.28;;;2.10;;
54561;SDS011;69047;53.358;-1.486;2023-06-22T06:42:43;9.50;;;2.35;;
54561;SDS011;69047;53.358;-1.486;2023-06-22T06:47:42;5.37;;;1.90;;
54561;SDS011;69047;53.358;-1.486;2023-06-22T06:50:08;4.45;;;1.98;;
54561;SDS011;69047;53.358;-1.486;2023-06-22T06:52:34;6.75;;;2.22;;
54561;SDS011;69047;53.358;-1.486;2023-06-22T06:55:00;7.93;;;2.28;;
54561;SDS011;69047;53.358;-1.486;2023-06-22T06:57:26;6.30;;;2.13;;
54561;SDS011;69047;53.358;-1.486;2023-06-22T06:59:57;9.98;;;2.30;;
54561;SDS011;69047;53.358;-1.486;2023-06-22T07:02:23;4.10;;;2.60;;
54561;SDS011;69047;53.358;-1.486;2023-06-22T07:04:50;8.77;;;2.47;;
54561;SDS011;69047;53.358;-1.486;2023-06-22T07:07:16;3.78;;;2.15;;
54561;SDS011;69047;53.358;-1.486;2023-06-22T07:09:42;10.63;;;2.22;;
54561;SDS011;69047;53.358;-1.486;2023-06-22T07:12:07;10.55;;;2.40;;
54561;SDS011;69047;53.358;-1.486;2023-06-22T07:14:33;9.98;;;2.67;;
54561;SDS011;69047;53.358;-1.486;2023-06-22T07:16:58;8.07;;;2.30;;
54561;SDS011;69047;53.358;-1.486;2023-06-22T07:19:27;5.40;;;2.10;;
54561;SDS011;69047;53.358;-1.486;2023-06-22T07:21:53;3.42;;;2.03;;
54561;SDS011;69047;53.358;-1.486;2023-06-22T07:24:19;4.35;;;2.45;;
54561;SDS011;69047;53.358;-1.486;2023-06-22T07:26:46;3.63;;;2.35;;
54561;SDS011;69047;53.358;-1.486;2023-06-22T07:29:13;3.65;;;2.03;;
54561;SDS011;69047;53.358;-1.486;2023-06-22T07:31:38;3.45;;;2.22;;
54561;SDS011;69047;53.358;-1.486;2023-06-22T07:34:05;3.65;;;2.13;;
54561;SDS011;69047;53.358;-1.486;2023-06-22T07:36:31;2.90;;;2.00;;
54561;SDS011;69047;53.358;-1.486;2023-06-22T07:38:56;7.18;;;2.30;;
54561;SDS011;69047;53.358;-1.486;2023-06-22T07:41:22;9.13;;;2.30;;
54561;SDS011;69047;53.358;-1.486;2023-06-22T07:43:47;4.07;;;2.30;;
54561;SDS011;69047;53.358;-1.486;2023-06-22T07:46:13;4.53;;;1.90;;
54561;SDS011;69047;53.358;-1.486;2023-06-22T07:48:38;9.13;;;2.80;;
54561;SDS011;69047;53.358;-1.486;2023-06-22T07:51:04;3.70;;;2.00;;
54561;SDS011;69047;53.358;-1.486;2023-06-22T07:53:31;7.78;;;2.30;;
54561;SDS011;69047;53.358;-1.486;2023-06-22T07:55:56;5.97;;;2.03;;
54561;SDS011;69047;53.358;-1.486;2023-06-22T07:58:21;6.03;;;2.15;;
54561;SDS011;69047;53.358;-1.486;2023-06-22T08:00:47;3.90;;;1.90;;
54561;SDS011;69047;53.358;-1.486;2023-06-22T08:03:13;6.47;;;2.22;;
54561;SDS011;69047;53.358;-1.486;2023-06-22T08:05:39;5.88;;;2.33;;
54561;SDS011;69047;53.358;-1.486;2023-06-22T08:08:04;6.72;;;3.03;;
54561;SDS011;69047;53.358;-1.486;2023-06-22T08:10:30;6.78;;;3.03;;
54561;SDS011;69047;53.358;-1.486;2023-06-22T08:12:55;4.00;;;2.10;;
54561;SDS011;69047;53.358;-1.486;2023-06-22T08:15:20;8.13;;;2.28;;
54561;SDS011;69047;53.358;-1.486;2023-06-22T08:17:47;3.67;;;2.15;;
54561;SDS011;69047;53.358;-1.486;2023-06-22T08:20:12;5.90;;;2.45;;
54561;SDS011;69047;53.358;-1.486;2023-06-22T08:22:38;11.05;;;2.80;;
54561;SDS011;69047;53.358;-1.486;2023-06-22T08:25:04;5.50;;;2.20;;
54561;SDS011;69047;53.358;-1.486;2023-06-22T08:27:31;8.60;;;2.45;;
54561;SDS011;69047;53.358;-1.486;2023-06-22T08:29:59;3.25;;;2.22;;
54561;SDS011;69047;53.358;-1.486;2023-06-22T08:32:25;8.18;;;2.40;;
54561;SDS011;69047;53.358;-1.486;2023-06-22T08:34:55;3.78;;;2.45;;
54561;SDS011;69047;53.358;-1.486;2023-06-22T08:37:21;3.78;;;2.25;;
54561;SDS011;69047;53.358;-1.486;2023-06-22T08:39:55;5.03;;;2.78;;
54561;SDS011;69047;53.358;-1.486;2023-06-22T08:42:30;5.80;;;3.03;;
54561;SDS011;69047;53.358;-1.486;2023-06-22T08:44:57;8.48;;;2.28;;
54561;SDS011;69047;53.358;-1.486;2023-06-22T08:47:23;9.68;;;2.10;;
54561;SDS011;69047;53.358;-1.486;2023-06-22T08:49:49;5.53;;;2.67;;
54561;SDS011;69047;53.358;-1.486;2023-06-22T08:52:14;7.78;;;2.80;;
54561;SDS011;69047;53.358;-1.486;2023-06-22T08:54:40;5.43;;;2.60;;
54561;SDS011;69047;53.358;-1.486;2023-06-22T08:57:06;23.42;;;3.75;;
54561;SDS011;69047;53.358;-1.486;2023-06-22T08:59:31;6.97;;;2.83;;
54561;SDS011;69047;53.358;-1.486;2023-06-22T09:01:57;4.07;;;2.60;;
54561;SDS011;69047;53.358;-1.486;2023-06-22T09:04:22;11.02;;;2.72;;
54561;SDS011;69047;53.358;-1.486;2023-06-22T09:06:48;5.07;;;2.50;;
54561;SDS011;69047;53.358;-1.486;2023-06-22T09:09:17;5.57;;;2.90;;
54561;SDS011;69047;53.358;-1.486;2023-06-22T09:11:43;4.90;;;2.88;;
54561;SDS011;69047;53.358;-1.486;2023-06-22T09:14:08;5.05;;;2.78;;
54561;SDS011;69047;53.358;-1.486;2023-06-22T09:16:34;7.90;;;3.28;;
54561;SDS011;69047;53.358;-1.486;2023-06-22T09:19:00;4.53;;;2.83;;
54561;SDS011;69047;53.358;-1.486;2023-06-22T09:21:25;5.57;;;2.90;;
54561;SDS011;69047;53.358;-1.486;2023-06-22T09:23:50;4.20;;;2.58;;
54561;SDS011;69047;53.358;-1.486;2023-06-22T09:26:19;5.78;;;2.78;;
54561;SDS011;69047;53.358;-1.486;2023-06-22T09:28:45;8.05;;;3.03;;
54561;SDS011;69047;53.358;-1.486;2023-06-22T09:31:11;6.40;;;2.80;;
54561;SDS011;69047;53.358;-1.486;2023-06-22T09:33:36;6.75;;;3.22;;
54561;SDS011;69047;53.358;-1.486;2023-06-22T09:36:05;4.13;;;3.00;;
54561;SDS011;69047;53.358;-1.486;2023-06-22T09:38:34;4.82;;;2.97;;
54561;SDS011;69047;53.358;-1.486;2023-06-22T09:41:00;6.57;;;3.35;;
54561;SDS011;69047;53.358;-1.486;2023-06-22T09:43:25;7.97;;;2.90;;
54561;SDS011;69047;53.358;-1.486;2023-06-22T09:45:52;9.60;;;3.22;;
54561;SDS011;69047;53.358;-1.486;2023-06-22T09:48:17;5.47;;;3.38;;
54561;SDS011;69047;53.358;-1.486;2023-06-22T09:50:42;4.65;;;2.75;;
54561;SDS011;69047;53.358;-1.486;2023-06-22T09:53:08;5.45;;;2.90;;
54561;SDS011;69047;53.358;-1.486;2023-06-22T09:55:33;3.45;;;2.95;;
54561;SDS011;69047;53.358;-1.486;2023-06-22T09:57:58;4.53;;;2.97;;
54561;SDS011;69047;53.358;-1.486;2023-06-22T10:00:24;7.13;;;3.47;;
54561;SDS011;69047;53.358;-1.486;2023-06-22T10:02:51;8.30;;;2.55;;
54561;SDS011;69047;53.358;-1.486;2023-06-22T10:05:17;5.95;;;3.13;;
54561;SDS011;69047;53.358;-1.486;2023-06-22T10:07:42;6.25;;;2.88;;
54561;SDS011;69047;53.358;-1.486;2023-06-22T10:10:08;4.75;;;3.15;;
54561;SDS011;69047;53.358;-1.486;2023-06-22T10:12:34;3.92;;;2.67;;
54561;SDS011;69047;53.358;-1.486;2023-06-22T10:14:59;5.35;;;3.00;;
54561;SDS011;69047;53.358;-1.486;2023-06-22T10:17:25;4.95;;;2.83;;
54561;SDS011;69047;53.358;-1.486;2023-06-22T10:19:50;6.90;;;2.80;;
54561;SDS011;69047;53.358;-1.486;2023-06-22T10:22:16;4.97;;;2.70;;
54561;SDS011;69047;53.358;-1.486;2023-06-22T10:24:41;8.75;;;2.60;;
54561;SDS011;69047;53.358;-1.486;2023-06-22T10:27:12;5.90;;;3.55;;
54561;SDS011;69047;53.358;-1.486;2023-06-22T10:29:38;9.68;;;3.90;;
54561;SDS011;69047;53.358;-1.486;2023-06-22T10:32:04;5.70;;;3.50;;
54561;SDS011;69047;53.358;-1.486;2023-06-22T10:34:30;6.15;;;2.83;;
54561;SDS011;69047;53.358;-1.486;2023-06-22T10:36:56;3.63;;;2.78;;
54561;SDS011;69047;53.358;-1.486;2023-06-22T10:39:21;6.80;;;3.17;;
54561;SDS011;69047;53.358;-1.486;2023-06-22T10:41:47;9.77;;;3.20;;
54561;SDS011;69047;53.358;-1.486;2023-06-22T10:44:12;6.95;;;3.20;;
54561;SDS011;69047;53.358;-1.486;2023-06-22T10:46:38;6.82;;;3.38;;
54561;SDS011;69047;53.358;-1.486;2023-06-22T10:49:04;3.65;;;2.85;;
54561;SDS011;69047;53.358;-1.486;2023-06-22T10:51:29;5.40;;;2.92;;
54561;SDS011;69047;53.358;-1.486;2023-06-22T10:53:56;8.13;;;3.50;;
54561;SDS011;69047;53.358;-1.486;2023-06-22T10:56:22;3.83;;;2.63;;
54561;SDS011;69047;53.358;-1.486;2023-06-22T10:58:47;3.35;;;2.03;;
54561;SDS011;69047;53.358;-1.486;2023-06-22T11:01:13;2.97;;;1.73;;
54561;SDS011;69047;53.358;-1.486;2023-06-22T11:03:39;1.33;;;1.15;;
54561;SDS011;69047;53.358;-1.486;2023-06-22T11:06:04;4.50;;;1.27;;
54561;SDS011;69047;53.358;-1.486;2023-06-22T11:08:30;3.42;;;0.90;;
54561;SDS011;69047;53.358;-1.486;2023-06-22T11:10:55;1.52;;;0.70;;
54561;SDS011;69047;53.358;-1.486;2023-06-22T11:13:20;0.90;;;0.70;;
54561;SDS011;69047;53.358;-1.486;2023-06-22T11:15:46;0.55;;;0.47;;
54561;SDS011;69047;53.358;-1.486;2023-06-22T11:18:11;1.10;;;0.45;;
54561;SDS011;69047;53.358;-1.486;2023-06-22T11:20:37;0.68;;;0.32;;
54561;SDS011;69047;53.358;-1.486;2023-06-22T11:23:07;0.93;;;0.55;;
54561;SDS011;69047;53.358;-1.486;2023-06-22T11:25:32;0.55;;;0.45;;
54561;SDS011;69047;53.358;-1.486;2023-06-22T11:28:01;0.40;;;0.40;;
54561;SDS011;69047;53.358;-1.486;2023-06-22T11:30:29;0.10;;;0.10;;
54561;SDS011;69047;53.358;-1.486;2023-06-22T11:32:56;0.20;;;0.20;;
54561;SDS011;69047;53.358;-1.486;2023-06-22T11:35:22;0.63;;;0.32;;
54561;SDS011;69047;53.358;-1.486;2023-06-22T11:37:48;0.30;;;0.20;;
54561;SDS011;69047;53.358;-1.486;2023-06-22T11:40:13;0.10;;;0.10;;
54561;SDS011;69047;53.358;-1.486;2023-06-22T11:42:38;0.17;;;0.17;;
54561;SDS011;69047;53.358;-1.486;2023-06-22T11:45:04;1.30;;;0.40;;
54561;SDS011;69047;53.358;-1.486;2023-06-22T11:47:30;0.45;;;0.20;;
54561;SDS011;69047;53.358;-1.486;2023-06-22T11:49:55;0.30;;;0.30;;
54561;SDS011;69047;53.358;-1.486;2023-06-22T11:52:21;0.10;;;0.10;;
54561;SDS011;69047;53.358;-1.486;2023-06-22T11:54:46;0.20;;;0.20;;
54561;SDS011;69047;53.358;-1.486;2023-06-22T11:57:11;0.10;;;0.10;;
54561;SDS011;69047;53.358;-1.486;2023-06-22T11:59:37;0.47;;;0.20;;
54561;SDS011;69047;53.358;-1.486;2023-06-22T12:02:02;0.25;;;0.20;;
54561;SDS011;69047;53.358;-1.486;2023-06-22T12:04:29;0.20;;;0.20;;
54561;SDS011;69047;53.358;-1.486;2023-06-22T12:06:54;0.22;;;0.20;;
54561;SDS011;69047;53.358;-1.486;2023-06-22T12:09:20;1.10;;;0.10;;
54561;SDS011;69047;53.358;-1.486;2023-06-22T12:11:45;0.40;;;0.10;;
54561;SDS011;69047;53.358;-1.486;2023-06-22T12:14:10;0.20;;;0.20;;
54561;SDS011;69047;53.358;-1.486;2023-06-22T12:16:36;0.17;;;0.17;;
54561;SDS011;69047;53.358;-1.486;2023-06-22T12:19:01;0.20;;;0.10;;
54561;SDS011;69047;53.358;-1.486;2023-06-22T12:21:26;0.13;;;0.10;;
54561;SDS011;69047;53.358;-1.486;2023-06-22T12:23:53;0.32;;;0.30;;
54561;SDS011;69047;53.358;-1.486;2023-06-22T12:26:18;0.75;;;0.17;;
54561;SDS011;69047;53.358;-1.486;2023-06-22T12:28:43;0.43;;;0.32;;
54561;SDS011;69047;53.358;-1.486;2023-06-22T12:31:09;0.17;;;0.17;;
54561;SDS011;69047;53.358;-1.486;2023-06-22T12:33:34;0.30;;;0.10;;
54561;SDS011;69047;53.358;-1.486;2023-06-22T12:35:59;0.10;;;0.10;;
54561;SDS011;69047;53.358;-1.486;2023-06-22T12:38:25;0.20;;;0.20;;
54561;SDS011;69047;53.358;-1.486;2023-06-22T12:40:51;0.30;;;0.10;;
54561;SDS011;69047;53.358;-1.486;2023-06-22T12:43:17;0.28;;;0.28;;
54561;SDS011;69047;53.358;-1.486;2023-06-22T12:45:43;0.68;;;0.28;;
54561;SDS011;69047;53.358;-1.486;2023-06-22T12:48:08;0.20;;;0.20;;
54561;SDS011;69047;53.358;-1.486;2023-06-22T12:50:34;0.28;;;0.22;;
54561;SDS011;69047;53.358;-1.486;2023-06-22T12:52:59;1.85;;;0.10;;
54561;SDS011;69047;53.358;-1.486;2023-06-22T12:55:27;0.10;;;0.10;;
54561;SDS011;69047;53.358;-1.486;2023-06-22T12:57:52;0.25;;;0.25;;
54561;SDS011;69047;53.358;-1.486;2023-06-22T13:00:18;0.10;;;0.10;;
54561;SDS011;69047;53.358;-1.486;2023-06-22T13:02:44;0.20;;;0.20;;
54561;SDS011;69047;53.358;-1.486;2023-06-22T13:05:10;0.20;;;0.20;;
54561;SDS011;69047;53.358;-1.486;2023-06-22T13:07:36;0.17;;;0.10;;
54561;SDS011;69047;53.358;-1.486;2023-06-22T13:10:02;0.20;;;0.20;;
54561;SDS011;69047;53.358;-1.486;2023-06-22T13:12:27;0.10;;;0.10;;
54561;SDS011;69047;53.358;-1.486;2023-06-22T13:14:53;0.10;;;0.10;;
54561;SDS011;69047;53.358;-1.486;2023-06-22T13:17:18;0.20;;;0.20;;
54561;SDS011;69047;53.358;-1.486;2023-06-22T13:19:44;0.17;;;0.17;;
54561;SDS011;69047;53.358;-1.486;2023-06-22T13:22:29;0.10;;;0.10;;
54561;SDS011;69047;53.358;-1.486;2023-06-22T13:25:05;0.10;;;0.10;;
54561;SDS011;69047;53.358;-1.486;2023-06-22T13:27:31;1.10;;;0.10;;
54561;SDS011;69047;53.358;-1.486;2023-06-22T13:29:57;0.20;;;0.20;;
54561;SDS011;69047;53.358;-1.486;2023-06-22T13:32:22;0.30;;;0.20;;
54561;SDS011;69047;53.358;-1.486;2023-06-22T13:34:48;0.10;;;0.10;;
54561;SDS011;69047;53.358;-1.486;2023-06-22T13:37:13;0.20;;;0.20;;
54561;SDS011;69047;53.358;-1.486;2023-06-22T13:39:39;0.10;;;0.10;;
54561;SDS011;69047;53.358;-1.486;2023-06-22T13:42:04;0.22;;;0.22;;
54561;SDS011;69047;53.358;-1.486;2023-06-22T13:44:30;0.13;;;0.10;;
54561;SDS011;69047;53.358;-1.486;2023-06-22T13:46:55;0.30;;;0.28;;
54561;SDS011;69047;53.358;-1.486;2023-06-22T13:49:21;0.17;;;0.10;;
54561;SDS011;69047;53.358;-1.486;2023-06-22T13:51:49;0.20;;;0.20;;
54561;SDS011;69047;53.358;-1.486;2023-06-22T13:54:15;0.10;;;0.10;;
54561;SDS011;69047;53.358;-1.486;2023-06-22T13:56:41;0.15;;;0.15;;
54561;SDS011;69047;53.358;-1.486;2023-06-22T13:59:06;0.05;;;0.05;;
54561;SDS011;69047;53.358;-1.486;2023-06-22T14:01:34;0.10;;;0.10;;
54561;SDS011;69047;53.358;-1.486;2023-06-22T14:04:00;0.10;;;0.10;;
54561;SDS011;69047;53.358;-1.486;2023-06-22T14:06:27;1.48;;;0.17;;
54561;SDS011;69047;53.358;-1.486;2023-06-22T14:08:52;0.10;;;0.10;;
54561;SDS011;69047;53.358;-1.486;2023-06-22T14:11:18;0.10;;;0.10;;
54561;SDS011;69047;53.358;-1.486;2023-06-22T14:13:43;0.22;;;0.17;;
54561;SDS011;69047;53.358;-1.486;2023-06-22T14:16:08;0.15;;;0.10;;
54561;SDS011;69047;53.358;-1.486;2023-06-22T14:18:34;0.10;;;0.10;;
54561;SDS011;69047;53.358;-1.486;2023-06-22T14:20:59;0.05;;;0.05;;
54561;SDS011;69047;53.358;-1.486;2023-06-22T14:23:25;0.10;;;0.10;;
54561;SDS011;69047;53.358;-1.486;2023-06-22T14:25:50;0.13;;;0.13;;
54561;SDS011;69047;53.358;-1.486;2023-06-22T14:28:15;0.10;;;0.10;;
54561;SDS011;69047;53.358;-1.486;2023-06-22T14:30:41;0.10;;;0.10;;
54561;SDS011;69047;53.358;-1.486;2023-06-22T14:33:08;0.10;;;0.10;;
54561;SDS011;69047;53.358;-1.486;2023-06-22T14:35:33;0.20;;;0.10;;
54561;SDS011;69047;53.358;-1.486;2023-06-22T14:37:59;0.30;;;0.15;;
54561;SDS011;69047;53.358;-1.486;2023-06-22T14:40:24;0.10;;;0.10;;